Time;durP1;ratioP1;P1;durP2;ratioP2;P2;SDS_P1;SDS_P2;PMS_P1;PMS_P2;Temp;Humidity;BMP_temperature;BMP_pressure;BME280_temperature;BME280_humidity;BME280_pressure;Samples;Min_cycle;Max_cycle;Signal;HPM_P1;HPM_P2
2023/06/03 00:01:36;;;;;;;11.93;10.30;;;20.80;99.90;;;;;;5076270;28;20480;-76
2023/06/03 00:04:04;;;;;;;13.10;9.67;;;20.80;99.90;;;;;;5076173;28;20219;-82
2023/06/03 00:06:29;;;;;;;10.50;9.43;;;20.80;99.90;;;;;;5076408;28;20207;-76
2023/06/03 00:08:55;;;;;;;14.00;10.60;;;20.70;99.90;;;;;;5078284;28;20814;-76
2023/06/03 00:11:21;;;;;;;9.97;7.97;;;20.70;99.90;;;;;;5091640;28;20212;-76
2023/06/03 00:13:47;;;;;;;11.07;9.90;;;20.70;99.90;;;;;;5114716;28;20210;-76
2023/06/03 00:16:13;;;;;;;9.57;8.50;;;20.70;99.90;;;;;;5115365;28;20222;-76
2023/06/03 00:18:39;;;;;;;11.57;8.63;;;20.60;99.90;;;;;;5096282;28;20567;-76
2023/06/03 00:21:04;;;;;;;12.00;8.80;;;20.60;99.90;;;;;;5097432;28;20595;-76
2023/06/03 00:23:31;;;;;;;10.97;7.90;;;20.60;99.90;;;;;;5116022;28;20187;-76
2023/06/03 00:25:58;;;;;;;12.60;8.13;;;20.60;99.90;;;;;;5097271;28;20203;-82
2023/06/03 00:28:24;;;;;;;9.87;8.30;;;20.60;99.90;;;;;;5109770;28;20435;-76
2023/06/03 00:30:49;;;;;;;11.13;7.70;;;20.60;99.90;;;;;;5113532;28;20951;-81
2023/06/03 00:33:15;;;;;;;9.67;7.40;;;20.50;99.90;;;;;;5097908;28;20305;-82
2023/06/03 00:35:40;;;;;;;8.73;7.93;;;20.50;99.90;;;;;;5097945;28;20203;-82
2023/06/03 00:38:06;;;;;;;11.90;8.10;;;20.50;99.90;;;;;;5097892;28;20273;-82
2023/06/03 00:40:32;;;;;;;12.70;8.40;;;20.50;99.90;;;;;;5115167;28;20188;-76
2023/06/03 00:42:58;;;;;;;9.20;8.07;;;20.40;99.90;;;;;;5097331;28;20559;-76
2023/06/03 00:45:23;;;;;;;9.10;8.30;;;20.50;99.90;;;;;;5115849;28;20213;-83
2023/06/03 00:47:50;;;;;;;12.17;8.30;;;20.50;99.90;;;;;;5115929;28;20245;-82
2023/06/03 00:50:16;;;;;;;10.67;7.77;;;20.40;99.90;;;;;;5097648;28;20199;-82
2023/06/03 00:52:43;;;;;;;10.83;7.30;;;20.40;99.90;;;;;;5115847;28;20407;-76
2023/06/03 00:55:09;;;;;;;13.80;7.77;;;20.40;99.90;;;;;;5114887;28;20219;-76
2023/06/03 00:57:34;;;;;;;9.17;8.17;;;20.30;99.90;;;;;;5097541;28;20407;-76
2023/06/03 01:00:00;;;;;;;11.70;7.27;;;20.30;99.90;;;;;;5097674;28;20773;-76
2023/06/03 01:02:26;;;;;;;9.13;7.90;;;20.30;99.90;;;;;;5096089;28;20686;-76
2023/06/03 01:04:55;;;;;;;12.90;8.27;;;20.20;99.90;;;;;;5094340;28;20354;-83
2023/06/03 01:07:36;;;;;;;9.10;8.20;;;20.20;99.90;;;;;;5095289;28;20886;-83
2023/06/03 01:10:07;;;;;;;13.87;8.37;;;20.20;99.90;;;;;;5093473;28;20517;-82
2023/06/03 01:12:51;;;;;;;12.10;8.03;;;20.20;99.90;;;;;;5093048;28;20398;-76
2023/06/03 01:15:20;;;;;;;10.87;7.20;;;20.10;99.90;;;;;;5092940;28;20440;-83
2023/06/03 01:17:50;;;;;;;11.47;6.67;;;20.10;99.90;;;;;;5092734;28;20451;-76
2023/06/03 01:20:17;;;;;;;8.87;7.30;;;20.10;99.90;;;;;;5092844;28;20468;-83
2023/06/03 01:22:46;;;;;;;8.93;7.53;;;20.00;99.90;;;;;;5092727;28;20431;-83
2023/06/03 01:25:16;;;;;;;10.10;7.90;;;20.00;99.90;;;;;;5074475;28;20439;-76
2023/06/03 01:27:45;;;;;;;10.70;6.90;;;20.00;99.90;;;;;;5100654;28;20561;-76
2023/06/03 01:30:13;;;;;;;8.73;6.57;;;19.90;99.90;;;;;;5112282;28;20446;-82
2023/06/03 01:32:41;;;;;;;7.90;6.43;;;19.90;99.90;;;;;;5112770;28;20402;-76
2023/06/03 01:35:08;;;;;;;11.57;7.40;;;19.90;99.90;;;;;;5096424;28;20448;-83
2023/06/03 01:37:34;;;;;;;8.63;6.90;;;19.90;99.90;;;;;;5115170;28;20411;-82
2023/06/03 01:40:01;;;;;;;11.13;7.63;;;19.90;99.90;;;;;;5115091;28;20487;-82
2023/06/03 01:42:27;;;;;;;7.83;6.70;;;19.90;99.90;;;;;;5114630;28;20400;-75
2023/06/03 01:44:53;;;;;;;14.13;7.77;;;19.80;99.90;;;;;;5096790;28;20520;-82
2023/06/03 01:47:19;;;;;;;8.30;6.80;;;19.80;99.90;;;;;;5114996;28;20187;-82
2023/06/03 01:49:45;;;;;;;8.50;7.33;;;19.70;99.90;;;;;;5115393;28;20782;-76
2023/06/03 01:52:11;;;;;;;13.63;8.20;;;19.70;99.90;;;;;;5096011;28;20415;-75
2023/06/03 01:54:37;;;;;;;12.20;6.73;;;19.70;99.90;;;;;;5096155;28;20539;-75
2023/06/03 01:57:03;;;;;;;9.90;7.43;;;19.60;99.90;;;;;;5114215;28;20410;-75
2023/06/03 01:59:28;;;;;;;9.30;6.80;;;19.60;99.90;;;;;;5114565;28;20188;-79
2023/06/03 02:01:59;;;;;;;8.40;7.17;;;19.50;99.90;;;;;;5113486;28;20808;-76
2023/06/03 02:04:26;;;;;;;9.47;7.20;;;19.50;99.90;;;;;;5114981;28;20657;-76
2023/06/03 02:06:59;;;;;;;9.70;6.10;;;19.50;99.90;;;;;;5110141;28;20924;-75
2023/06/03 02:09:29;;;;;;;9.30;6.77;;;19.50;99.90;;;;;;5089195;28;20430;-82
2023/06/03 02:11:56;;;;;;;13.50;7.30;;;19.40;99.90;;;;;;5101610;28;20491;-75
2023/06/03 02:14:22;;;;;;;13.13;6.53;;;19.40;99.90;;;;;;5109390;28;20567;-75
2023/06/03 02:16:48;;;;;;;8.67;6.20;;;19.40;99.90;;;;;;5111756;28;20419;-75
2023/06/03 02:19:16;;;;;;;10.80;7.70;;;19.40;99.90;;;;;;5094247;28;20878;-75
2023/06/03 02:21:45;;;;;;;10.47;7.37;;;19.30;99.90;;;;;;5093795;28;20442;-82
2023/06/03 02:24:15;;;;;;;9.83;6.30;;;19.30;99.90;;;;;;5112038;28;20452;-82
2023/06/03 02:26:52;;;;;;;12.60;6.83;;;19.30;99.90;;;;;;5093481;28;20489;-75
2023/06/03 02:29:25;;;;;;;11.83;6.97;;;19.20;99.90;;;;;;5111905;28;20414;-82
2023/06/03 02:31:54;;;;;;;10.03;6.63;;;19.20;99.90;;;;;;5109967;28;20455;-82
2023/06/03 02:34:20;;;;;;;9.07;6.93;;;19.20;99.90;;;;;;5112350;28;20540;-82
2023/06/03 02:36:46;;;;;;;7.10;6.03;;;19.10;99.90;;;;;;5127705;27;20433;-82
2023/06/03 02:39:13;;;;;;;9.53;6.67;;;19.10;99.90;;;;;;5112348;28;20412;-75
2023/06/03 02:41:41;;;;;;;6.53;5.93;;;19.10;99.90;;;;;;5093687;28;20208;-75
2023/06/03 02:44:07;;;;;;;8.07;6.40;;;19.10;99.90;;;;;;5093451;28;20478;-75
2023/06/03 02:46:33;;;;;;;7.20;6.50;;;19.10;99.90;;;;;;5093652;28;20443;-82
2023/06/03 02:49:03;;;;;;;8.47;6.83;;;19.10;99.90;;;;;;5114100;28;20422;-81
2023/06/03 02:51:29;;;;;;;12.53;7.70;;;19.00;99.90;;;;;;5114067;28;20513;-75
2023/06/03 02:53:55;;;;;;;8.80;5.97;;;19.00;99.90;;;;;;5094483;28;20479;-81
2023/06/03 02:56:22;;;;;;;9.87;5.93;;;19.00;99.90;;;;;;5109655;28;20433;-83
2023/06/03 02:58:48;;;;;;;13.03;6.57;;;19.00;99.90;;;;;;5113672;28;20425;-82
2023/06/03 03:01:15;;;;;;;8.60;6.70;;;18.90;99.90;;;;;;5111032;28;20432;-75
2023/06/03 03:03:41;;;;;;;10.70;5.83;;;18.90;99.90;;;;;;5112269;28;20801;-75
2023/06/03 03:06:11;;;;;;;12.87;6.70;;;18.90;99.90;;;;;;5090018;28;21049;-75
2023/06/03 03:08:37;;;;;;;9.50;6.50;;;18.90;99.90;;;;;;5074450;28;20426;-82
2023/06/03 03:11:05;;;;;;;6.93;6.07;;;19.00;99.90;;;;;;5094200;28;20424;-75
2023/06/03 03:13:31;;;;;;;9.70;5.90;;;19.00;99.90;;;;;;5095401;28;20480;-82
2023/06/03 03:15:56;;;;;;;6.67;5.97;;;18.90;99.90;;;;;;5113653;28;20459;-75
2023/06/03 03:18:22;;;;;;;7.80;6.17;;;18.90;99.90;;;;;;5092774;28;20634;-82
2023/06/03 03:20:48;;;;;;;10.67;6.40;;;19.00;99.90;;;;;;5104548;28;20208;-82
2023/06/03 03:23:14;;;;;;;9.40;6.47;;;18.90;99.90;;;;;;5104000;28;20186;-75
2023/06/03 03:25:40;;;;;;;8.83;5.87;;;18.90;99.90;;;;;;5094870;28;20192;-82
2023/06/03 03:28:06;;;;;;;8.47;5.77;;;18.90;99.90;;;;;;5096325;28;20522;-75
2023/06/03 03:30:32;;;;;;;8.80;6.60;;;18.80;99.90;;;;;;5092707;28;20469;-82
2023/06/03 03:32:59;;;;;;;10.00;5.93;;;18.80;99.90;;;;;;5103063;28;20502;-82
2023/06/03 03:35:25;;;;;;;6.83;6.13;;;18.70;99.90;;;;;;5105786;28;20452;-75
2023/06/03 03:38:04;;;;;;;7.70;6.20;;;18.60;99.90;;;;;;5116318;28;20412;-75
2023/06/03 03:40:31;;;;;;;8.33;5.77;;;18.70;99.90;;;;;;5109569;28;20789;-75
2023/06/03 03:42:58;;;;;;;15.77;6.47;;;18.60;99.90;;;;;;5108106;28;20428;-75
2023/06/03 03:45:29;;;;;;;11.53;5.97;;;18.70;99.90;;;;;;5110259;28;20475;-82
2023/06/03 03:48:02;;;;;;;6.20;5.53;;;18.70;99.90;;;;;;5092356;28;20486;-81
2023/06/03 03:50:41;;;;;;;6.63;5.80;;;18.70;99.90;;;;;;5111466;28;20546;-75
2023/06/03 03:53:12;;;;;;;6.80;5.10;;;18.70;99.90;;;;;;5076269;28;20573;-75
2023/06/03 03:55:48;;;;;;;8.60;5.43;;;18.70;99.90;;;;;;5093280;28;20422;-75
2023/06/03 03:58:37;;;;;;;8.67;5.43;;;18.70;99.90;;;;;;5094158;28;20408;-82
2023/06/03 04:01:18;;;;;;;6.30;5.00;;;18.70;99.90;;;;;;5102444;28;20447;-75
2023/06/03 04:03:48;;;;;;;9.50;5.23;;;18.70;99.90;;;;;;5096445;28;20542;-75
2023/06/03 04:06:29;;;;;;;9.00;5.13;;;18.70;99.90;;;;;;5096326;28;20520;-82
2023/06/03 04:08:54;;;;;;;6.97;5.70;;;18.70;99.90;;;;;;5094731;28;20834;-82
2023/06/03 04:11:43;;;;;;;9.00;5.00;;;18.70;99.90;;;;;;5112584;28;20425;-82
2023/06/03 04:14:10;;;;;;;7.23;5.40;;;18.70;99.90;;;;;;5094701;28;20492;-77
2023/06/03 04:16:55;;;;;;;8.00;5.10;;;18.80;99.90;;;;;;5110089;28;20980;-82
2023/06/03 04:19:30;;;;;;;8.40;5.40;;;18.80;99.90;;;;;;5094909;28;20489;-83
2023/06/03 04:21:57;;;;;;;7.73;4.93;;;18.80;99.90;;;;;;5111814;28;20473;-76
2023/06/03 04:24:25;;;;;;;9.83;5.57;;;18.90;99.90;;;;;;5094957;28;20429;-75
2023/06/03 04:26:52;;;;;;;6.00;5.03;;;18.90;99.90;;;;;;5114089;28;20482;-75
2023/06/03 04:29:18;;;;;;;13.03;5.57;;;18.90;99.90;;;;;;5096858;28;20436;-81
2023/06/03 04:31:44;;;;;;;6.80;5.10;;;19.00;99.90;;;;;;5090677;28;20456;-83
2023/06/03 04:34:10;;;;;;;6.50;4.97;;;19.00;99.90;;;;;;5106027;28;20571;-75
2023/06/03 04:36:36;;;;;;;7.33;5.43;;;19.10;99.90;;;;;;5095514;28;20426;-76
2023/06/03 04:39:05;;;;;;;11.27;5.90;;;19.10;99.90;;;;;;5114591;28;21003;-82
2023/06/03 04:41:34;;;;;;;7.60;5.23;;;19.10;99.90;;;;;;5085148;28;20206;-82
2023/06/03 04:44:01;;;;;;;6.63;5.00;;;19.10;99.90;;;;;;5096245;28;20537;-76
2023/06/03 04:46:30;;;;;;;5.40;4.67;;;19.10;99.90;;;;;;5091782;28;20464;-82
2023/06/03 04:49:02;;;;;;;6.90;4.57;;;19.10;99.90;;;;;;5114483;28;20938;-76
2023/06/03 04:51:34;;;;;;;11.53;5.30;;;19.10;99.90;;;;;;5096119;28;20971;-82
2023/06/03 04:54:04;;;;;;;6.63;4.93;;;19.20;99.90;;;;;;5096104;28;20557;-82
2023/06/03 04:56:30;;;;;;;4.80;4.30;;;19.20;99.90;;;;;;5094339;28;20878;-75
2023/06/03 04:59:03;;;;;;;8.67;4.90;;;19.20;99.90;;;;;;5111971;28;20830;-83
2023/06/03 05:01:31;;;;;;;7.20;4.93;;;19.20;99.90;;;;;;5112859;28;20449;-76
2023/06/03 05:03:57;;;;;;;6.37;4.87;;;19.30;99.90;;;;;;5114178;28;20472;-82
2023/06/03 05:06:23;;;;;;;11.33;5.07;;;19.30;99.90;;;;;;5110257;28;20450;-83
2023/06/03 05:08:50;;;;;;;8.20;5.00;;;19.40;99.90;;;;;;5111645;28;20409;-83
2023/06/03 05:11:17;;;;;;;6.73;4.53;;;19.40;99.90;;;;;;5091551;28;20447;-83
2023/06/03 05:13:43;;;;;;;7.13;5.00;;;19.50;99.90;;;;;;5112280;28;20977;-82
2023/06/03 05:16:10;;;;;;;5.63;5.13;;;19.50;99.90;;;;;;5094059;28;20485;-82
2023/06/03 05:18:35;;;;;;;8.20;5.03;;;19.60;99.90;;;;;;5103089;28;20846;-82
2023/06/03 05:21:02;;;;;;;7.40;4.70;;;19.60;99.90;;;;;;5111903;28;20459;-76
2023/06/03 05:23:28;;;;;;;9.50;5.33;;;19.70;99.90;;;;;;5109745;28;20222;-83
2023/06/03 05:25:53;;;;;;;7.03;5.20;;;19.80;99.90;;;;;;5094733;28;20529;-76
2023/06/03 05:28:19;;;;;;;13.20;5.97;;;19.80;99.90;;;;;;5092118;28;20186;-76
2023/06/03 05:30:45;;;;;;;5.90;4.63;;;19.80;99.90;;;;;;5090774;28;20190;-76
2023/06/03 05:33:23;;;;;;;4.73;4.33;;;19.80;99.90;;;;;;5108674;28;20462;-76
2023/06/03 05:35:49;;;;;;;5.30;4.80;;;19.90;99.90;;;;;;5109100;28;20662;-82
2023/06/03 05:38:15;;;;;;;9.17;4.90;;;19.90;99.90;;;;;;5109297;28;20468;-83
2023/06/03 05:40:40;;;;;;;5.37;4.83;;;20.00;99.90;;;;;;5108649;28;20742;-83
2023/06/03 05:43:06;;;;;;;6.90;4.90;;;20.00;99.90;;;;;;5107170;28;20526;-83
2023/06/03 05:45:31;;;;;;;6.97;4.93;;;20.10;99.90;;;;;;5108033;28;20649;-76
2023/06/03 05:47:57;;;;;;;9.50;4.93;;;20.10;99.90;;;;;;5108198;28;20715;-76
2023/06/03 05:50:23;;;;;;;7.13;4.80;;;20.20;99.90;;;;;;5109170;28;20195;-77
2023/06/03 05:52:48;;;;;;;7.37;5.00;;;20.20;99.90;;;;;;5112134;28;20168;-81
2023/06/03 05:55:14;;;;;;;5.03;4.53;;;20.20;99.90;;;;;;5094112;28;20200;-83
2023/06/03 05:57:40;;;;;;;5.27;4.70;;;20.30;99.90;;;;;;5096192;28;20639;-76
2023/06/03 06:00:07;;;;;;;5.83;4.03;;;20.40;99.90;;;;;;5096542;28;20199;-76
2023/06/03 06:02:32;;;;;;;5.03;4.00;;;20.40;99.90;;;;;;5113113;28;20483;-82
2023/06/03 06:04:58;;;;;;;5.73;4.30;;;20.50;99.90;;;;;;5093044;28;20531;-76
2023/06/03 06:07:23;;;;;;;6.43;4.80;;;20.50;99.90;;;;;;5109926;28;20598;-76
2023/06/03 06:09:49;;;;;;;6.80;5.00;;;20.60;99.90;;;;;;5126293;27;20601;-76
2023/06/03 06:12:16;;;;;;;8.33;4.97;;;20.60;99.90;;;;;;5110496;28;20463;-76
2023/06/03 06:14:42;;;;;;;6.20;3.97;;;20.70;99.90;;;;;;5110573;28;20302;-76
2023/06/03 06:17:08;;;;;;;6.10;4.43;;;20.70;99.90;;;;;;5092553;28;21086;-76
2023/06/03 06:19:36;;;;;;;7.10;4.60;;;20.80;99.90;;;;;;5093363;28;20292;-83
2023/06/03 06:22:02;;;;;;;6.43;4.13;;;20.90;99.90;;;;;;5114246;28;20625;-83
2023/06/03 06:24:28;;;;;;;7.50;3.80;;;20.90;99.90;;;;;;5112973;28;20415;-83
2023/06/03 06:26:54;;;;;;;7.10;4.30;;;21.00;99.90;;;;;;5111941;28;20438;-76
2023/06/03 06:29:20;;;;;;;6.23;4.80;;;21.10;99.90;;;;;;5092015;28;20179;-84
2023/06/03 06:31:45;;;;;;;6.60;4.60;;;21.10;99.90;;;;;;5111339;28;20427;-83
2023/06/03 06:34:17;;;;;;;5.40;4.60;;;21.20;99.90;;;;;;5111352;28;20207;-83
2023/06/03 06:36:49;;;;;;;6.77;4.50;;;21.20;99.90;;;;;;5110950;28;20552;-84
2023/06/03 06:39:33;;;;;;;6.93;4.70;;;21.30;99.90;;;;;;5093008;28;20967;-83
2023/06/03 06:42:12;;;;;;;8.20;4.57;;;21.40;99.90;;;;;;5112251;28;20555;-76
2023/06/03 06:44:49;;;;;;;4.60;3.83;;;21.40;99.90;;;;;;5112233;28;20923;-84
2023/06/03 06:47:25;;;;;;;4.73;4.30;;;21.50;99.90;;;;;;5093296;28;20858;-76
2023/06/03 06:49:52;;;;;;;5.30;4.00;;;21.60;99.90;;;;;;5112190;28;20427;-83
2023/06/03 06:52:19;;;;;;;6.93;4.40;;;21.60;99.90;;;;;;5113927;28;20423;-83
2023/06/03 06:54:45;;;;;;;5.50;3.77;;;21.60;99.90;;;;;;5095881;28;21038;-76
2023/06/03 06:57:17;;;;;;;4.93;4.13;;;21.70;99.90;;;;;;5095731;28;20407;-83
2023/06/03 06:59:42;;;;;;;4.97;4.27;;;21.70;99.90;;;;;;5113862;28;20785;-76
2023/06/03 07:02:08;;;;;;;7.00;4.87;;;21.80;99.90;;;;;;5117879;28;20411;-76
2023/06/03 07:04:34;;;;;;;5.07;4.60;;;21.90;99.90;;;;;;5099185;28;20175;-76
2023/06/03 07:06:59;;;;;;;9.40;4.70;;;21.90;99.90;;;;;;5116355;28;20171;-76
2023/06/03 07:09:25;;;;;;;5.20;3.87;;;22.00;99.90;;;;;;5097783;28;20176;-76
2023/06/03 07:11:50;;;;;;;5.33;4.27;;;22.00;99.90;;;;;;5097837;28;20693;-76
2023/06/03 07:14:16;;;;;;;8.03;4.23;;;22.10;99.90;;;;;;5115667;28;20211;-76
2023/06/03 07:16:42;;;;;;;6.07;4.43;;;22.20;99.90;;;;;;5097349;28;20206;-83
2023/06/03 07:19:08;;;;;;;5.63;4.13;;;22.30;99.90;;;;;;5097427;28;20640;-77
2023/06/03 07:21:34;;;;;;;4.80;4.20;;;22.30;99.90;;;;;;5117483;28;20427;-76
2023/06/03 07:24:00;;;;;;;4.93;4.50;;;22.40;99.90;;;;;;5117846;28;20624;-77
2023/06/03 07:26:31;;;;;;;5.53;3.83;;;22.40;99.90;;;;;;5099150;28;20225;-76
2023/06/03 07:28:58;;;;;;;4.40;4.00;;;22.40;99.90;;;;;;5099299;28;20436;-76
2023/06/03 07:31:23;;;;;;;5.40;4.13;;;22.50;99.90;;;;;;5117326;28;20455;-83
2023/06/03 07:33:50;;;;;;;4.93;4.50;;;22.50;99.90;;;;;;5117629;28;20506;-76
2023/06/03 07:36:18;;;;;;;5.90;4.00;;;22.60;99.90;;;;;;5117436;28;20271;-84
2023/06/03 07:38:47;;;;;;;8.30;4.63;;;22.70;99.90;;;;;;5117520;28;20447;-84
2023/06/03 07:41:22;;;;;;;6.50;4.60;;;22.70;99.90;;;;;;5117494;28;20506;-83
2023/06/03 07:43:48;;;;;;;8.07;5.00;;;22.80;99.90;;;;;;5099151;28;20440;-76
2023/06/03 07:46:14;;;;;;;6.93;4.67;;;22.80;99.90;;;;;;5098738;28;20467;-84
2023/06/03 07:48:40;;;;;;;5.87;3.70;;;22.90;99.90;;;;;;5098851;28;20175;-83
2023/06/03 07:51:07;;;;;;;9.13;4.13;;;23.00;99.90;;;;;;5116971;28;20955;-84
2023/06/03 07:53:36;;;;;;;6.73;4.10;;;23.00;99.90;;;;;;5117430;28;20692;-76
2023/06/03 07:56:12;;;;;;;5.40;3.70;;;23.00;99.90;;;;;;5117022;28;20416;-76
2023/06/03 07:58:38;;;;;;;5.90;4.47;;;23.10;99.90;;;;;;5117031;28;20513;-76
2023/06/03 08:01:04;;;;;;;6.23;4.17;;;23.20;99.90;;;;;;5116812;28;20505;-79
2023/06/03 08:03:31;;;;;;;6.13;4.20;;;23.20;99.90;;;;;;5117088;28;20177;-84
2023/06/03 08:05:57;;;;;;;4.63;3.47;;;23.30;99.90;;;;;;5098468;28;20787;-76
2023/06/03 08:08:29;;;;;;;5.80;4.40;;;23.30;99.90;;;;;;5116704;28;20442;-84
2023/06/03 08:10:55;;;;;;;7.43;4.00;;;23.40;99.90;;;;;;5116552;28;20189;-76
2023/06/03 08:13:21;;;;;;;6.27;4.50;;;23.50;99.90;;;;;;5115525;28;20486;-76
2023/06/03 08:15:47;;;;;;;11.70;4.37;;;23.60;99.90;;;;;;5098079;28;20433;-84
2023/06/03 08:18:31;;;;;;;6.50;4.03;;;23.60;99.90;;;;;;5116478;28;20233;-76
2023/06/03 08:21:02;;;;;;;5.20;4.20;;;23.60;99.90;;;;;;5097861;28;20428;-83
2023/06/03 08:23:27;;;;;;;5.10;3.57;;;23.60;99.90;;;;;;5116738;28;20422;-84
2023/06/03 08:25:53;;;;;;;10.07;3.80;;;23.70;99.90;;;;;;5097996;28;20450;-76
2023/06/03 08:28:19;;;;;;;4.17;3.73;;;23.70;99.90;;;;;;5098079;28;20207;-81
2023/06/03 08:30:44;;;;;;;5.00;4.03;;;23.80;99.90;;;;;;5134888;27;20200;-84
2023/06/03 08:33:10;;;;;;;3.97;3.40;;;23.80;99.90;;;;;;5136730;27;20550;-83
2023/06/03 08:35:36;;;;;;;6.20;3.80;;;23.90;99.90;;;;;;5118229;27;20195;-76
2023/06/03 08:38:02;;;;;;;3.70;3.40;;;24.00;99.90;;;;;;5116757;27;20237;-83
2023/06/03 08:40:32;;;;;;;5.70;3.97;;;24.10;99.90;;;;;;5118641;27;20274;-77
2023/06/03 08:43:02;;;;;;;4.27;3.87;;;24.20;99.90;;;;;;5136624;27;20851;-84
2023/06/03 08:45:36;;;;;;;5.80;3.60;;;24.30;99.90;;;;;;5118210;27;20457;-79
2023/06/03 08:48:07;;;;;;;4.37;3.97;;;24.30;99.90;;;;;;5134485;27;20416;-84
2023/06/03 08:50:34;;;;;;;3.93;3.63;;;24.40;99.90;;;;;;5118051;27;20830;-84
2023/06/03 08:53:04;;;;;;;4.30;3.17;;;24.50;99.70;;;;;;5117866;27;20422;-77
2023/06/03 08:55:30;;;;;;;3.73;3.40;;;24.50;99.30;;;;;;5116553;27;20841;-84
2023/06/03 08:58:25;;;;;;;5.43;4.40;;;24.60;99.80;;;;;;5115738;28;20419;-83
2023/06/03 09:00:59;;;;;;;5.10;3.77;;;24.60;99.90;;;;;;5115631;28;20431;-84
2023/06/03 09:03:25;;;;;;;8.03;3.90;;;24.70;99.90;;;;;;5097462;28;20442;-77
2023/06/03 09:05:53;;;;;;;4.27;3.20;;;24.70;99.90;;;;;;5123496;27;20895;-86
2023/06/03 09:08:20;;;;;;;3.87;3.53;;;24.80;99.50;;;;;;5104299;28;20951;-77
2023/06/03 09:10:47;;;;;;;3.77;3.23;;;24.80;99.70;;;;;;5097058;28;20488;-77
2023/06/03 09:13:17;;;;;;;4.33;3.83;;;24.90;99.60;;;;;;5130990;27;20896;-77
2023/06/03 09:15:43;;;;;;;5.80;3.47;;;25.00;99.80;;;;;;5115691;27;20486;-78
2023/06/03 09:18:09;;;;;;;10.17;3.33;;;25.00;99.50;;;;;;5115284;28;20806;-86
2023/06/03 09:20:36;;;;;;;3.90;3.50;;;25.10;99.40;;;;;;5113929;28;20443;-84
2023/06/03 09:23:02;;;;;;;4.83;3.13;;;25.10;99.10;;;;;;5094848;28;20426;-76
2023/06/03 09:25:28;;;;;;;7.80;3.60;;;25.20;99.90;;;;;;5094837;28;20462;-84
2023/06/03 09:27:54;;;;;;;6.20;3.70;;;25.20;99.90;;;;;;5113068;28;20396;-76
2023/06/03 09:30:19;;;;;;;5.43;3.10;;;25.20;99.40;;;;;;5094782;28;20194;-84
2023/06/03 09:32:45;;;;;;;4.37;3.97;;;25.30;99.90;;;;;;5113222;28;20904;-77
2023/06/03 09:35:12;;;;;;;5.60;3.70;;;25.40;98.70;;;;;;5112833;28;20207;-84
2023/06/03 09:37:37;;;;;;;5.17;3.50;;;25.40;98.20;;;;;;5094978;28;20440;-77
2023/06/03 09:40:09;;;;;;;6.20;3.30;;;25.40;98.50;;;;;;5113054;28;20462;-84
2023/06/03 09:42:41;;;;;;;7.73;3.90;;;25.40;99.30;;;;;;5113121;28;20183;-84
2023/06/03 09:45:21;;;;;;;4.00;3.30;;;25.50;97.30;;;;;;5113119;28;20440;-77
2023/06/03 09:47:47;;;;;;;7.90;3.07;;;25.40;98.10;;;;;;5094544;28;20456;-84
2023/06/03 09:50:13;;;;;;;5.30;3.63;;;25.50;98.40;;;;;;5113097;28;20472;-76
2023/06/03 09:52:38;;;;;;;3.40;2.70;;;25.50;97.50;;;;;;5095957;28;20416;-76
2023/06/03 09:55:06;;;;;;;4.13;3.73;;;25.50;97.20;;;;;;5096589;28;20234;-84
2023/06/03 09:57:32;;;;;;;5.60;3.13;;;25.50;97.40;;;;;;5114657;28;20661;-77
2023/06/03 10:00:09;;;;;;;4.70;3.70;;;25.50;97.00;;;;;;5114918;28;20498;-77
2023/06/03 10:02:40;;;;;;;4.80;3.40;;;25.50;96.40;;;;;;5114699;28;20410;-84
2023/06/03 10:05:26;;;;;;;5.40;3.60;;;25.50;97.50;;;;;;5114452;28;20436;-77
2023/06/03 10:07:51;;;;;;;5.33;3.07;;;25.50;97.00;;;;;;5114399;28;20442;-84
2023/06/03 10:10:17;;;;;;;5.00;3.17;;;25.50;97.40;;;;;;5096089;28;20833;-76
2023/06/03 10:12:44;;;;;;;4.03;3.30;;;25.60;97.30;;;;;;5096065;28;20761;-76
2023/06/03 10:15:10;;;;;;;5.67;3.17;;;25.60;97.40;;;;;;5114167;28;20581;-77
2023/06/03 10:17:45;;;;;;;2.63;2.30;;;25.70;96.40;;;;;;5114006;28;20447;-84
2023/06/03 10:20:11;;;;;;;4.63;2.90;;;25.70;97.00;;;;;;5114352;28;20239;-77
2023/06/03 10:22:42;;;;;;;5.07;3.00;;;25.80;97.30;;;;;;5114227;28;20408;-77
2023/06/03 10:25:08;;;;;;;3.40;3.10;;;25.90;97.10;;;;;;5095810;28;20452;-77
2023/06/03 10:27:36;;;;;;;4.73;3.60;;;25.90;97.50;;;;;;5096001;28;20408;-77
2023/06/03 10:30:02;;;;;;;6.40;3.60;;;26.00;96.10;;;;;;5114741;28;20447;-84
2023/06/03 10:32:28;;;;;;;4.70;3.13;;;25.90;93.70;;;;;;5095762;28;20416;-77
2023/06/03 10:34:59;;;;;;;3.50;2.90;;;25.90;93.90;;;;;;5113801;28;20480;-77
2023/06/03 10:37:25;;;;;;;3.70;3.27;;;25.90;93.80;;;;;;5114263;28;20403;-84
2023/06/03 10:39:53;;;;;;;3.23;3.00;;;25.90;93.90;;;;;;5095666;28;20447;-77
2023/06/03 10:42:19;;;;;;;5.63;3.60;;;25.90;95.10;;;;;;5095791;28;20447;-83
2023/06/03 10:44:45;;;;;;;4.60;3.27;;;25.80;95.00;;;;;;5114667;28;20424;-77
2023/06/03 10:47:25;;;;;;;6.23;3.60;;;25.80;96.70;;;;;;5095620;28;20423;-77
2023/06/03 10:50:13;;;;;;;4.60;3.83;;;25.80;97.00;;;;;;5095854;28;20596;-84
2023/06/03 10:52:50;;;;;;;4.13;3.40;;;25.90;94.80;;;;;;5095559;28;20427;-83
2023/06/03 10:55:31;;;;;;;3.57;2.83;;;25.90;94.60;;;;;;5113554;28;20459;-84
2023/06/03 10:58:05;;;;;;;4.30;3.33;;;25.90;95.00;;;;;;5095597;28;20426;-77
2023/06/03 11:01:02;;;;;;;6.07;2.90;;;25.90;95.00;;;;;;5095567;28;20431;-84
2023/06/03 11:03:32;;;;;;;3.53;2.93;;;25.90;94.70;;;;;;5074201;28;20491;-84
2023/06/03 11:06:16;;;;;;;6.47;3.73;;;25.90;95.10;;;;;;5073512;28;20482;-84
2023/06/03 11:09:05;;;;;;;3.63;2.80;;;25.90;92.90;;;;;;5091628;28;21007;-76
2023/06/03 11:11:40;;;;;;;5.70;2.77;;;25.90;91.80;;;;;;5091345;28;20429;-84
2023/06/03 11:14:06;;;;;;;5.23;2.80;;;26.00;91.50;;;;;;5091527;28;20464;-85
2023/06/03 11:16:57;;;;;;;7.70;3.60;;;25.90;93.40;;;;;;5091257;28;20425;-77
2023/06/03 11:19:34;;;;;;;6.47;3.23;;;25.90;92.80;;;;;;5091597;28;20848;-84
2023/06/03 11:22:10;;;;;;;4.60;3.57;;;25.90;93.20;;;;;;5089224;28;20544;-83
2023/06/03 11:24:38;;;;;;;6.30;3.07;;;25.90;92.50;;;;;;5111139;28;20515;-77
2023/06/03 11:27:13;;;;;;;3.63;3.33;;;26.00;92.10;;;;;;5092502;28;20440;-82
2023/06/03 11:29:51;;;;;;;4.80;2.73;;;26.00;91.50;;;;;;5111794;28;20449;-78
2023/06/03 11:32:30;;;;;;;7.43;3.40;;;25.90;94.10;;;;;;5111536;28;20392;-77
2023/06/03 11:34:59;;;;;;;6.20;3.60;;;26.00;92.90;;;;;;5092944;28;21011;-77
2023/06/03 11:37:46;;;;;;;3.53;3.20;;;26.00;90.80;;;;;;5113606;28;20404;-84
2023/06/03 11:40:14;;;;;;;5.47;3.70;;;26.00;94.40;;;;;;5095134;28;20478;-77
2023/06/03 11:42:49;;;;;;;3.63;3.33;;;26.00;91.40;;;;;;5112679;28;20400;-83
2023/06/03 11:45:29;;;;;;;4.60;3.07;;;26.10;92.60;;;;;;5092226;28;20435;-84
2023/06/03 11:47:56;;;;;;;4.07;3.17;;;26.10;92.20;;;;;;5114588;28;20441;-83
2023/06/03 11:50:33;;;;;;;3.93;2.70;;;26.10;92.00;;;;;;5115060;28;20873;-76
2023/06/03 11:53:00;;;;;;;5.23;3.07;;;26.20;93.00;;;;;;5115049;28;20431;-76
2023/06/03 11:55:26;;;;;;;7.77;3.40;;;26.20;92.80;;;;;;5096743;28;20436;-84
2023/06/03 11:57:54;;;;;;;6.43;3.77;;;26.30;91.50;;;;;;5097119;28;20410;-83
2023/06/03 12:00:20;;;;;;;4.13;3.60;;;26.30;92.10;;;;;;5116944;28;20838;-84
2023/06/03 12:02:46;;;;;;;2.77;2.30;;;26.30;92.90;;;;;;5117123;28;20408;-77
2023/06/03 12:05:13;;;;;;;4.27;3.10;;;26.40;92.00;;;;;;5116969;28;20668;-77
2023/06/03 12:07:39;;;;;;;3.23;2.93;;;26.40;92.80;;;;;;5116604;28;20801;-77
2023/06/03 12:10:05;;;;;;;4.97;3.20;;;26.40;90.70;;;;;;5096371;28;20455;-77
2023/06/03 12:12:31;;;;;;;5.00;3.90;;;26.40;91.30;;;;;;5114699;28;20479;-84
2023/06/03 12:15:04;;;;;;;6.40;3.40;;;26.40;91.10;;;;;;5096438;28;20912;-85
2023/06/03 12:17:31;;;;;;;3.97;3.50;;;26.40;90.20;;;;;;5092533;28;20272;-76
2023/06/03 12:19:59;;;;;;;4.00;3.60;;;26.40;90.30;;;;;;5092251;28;20483;-85
2023/06/03 12:22:26;;;;;;;5.10;3.40;;;26.40;90.30;;;;;;5092866;28;20417;-77
2023/06/03 12:24:53;;;;;;;6.17;3.93;;;26.40;90.20;;;;;;5095676;28;20445;-77
2023/06/03 12:27:28;;;;;;;4.10;3.50;;;26.40;89.70;;;;;;5096076;28;20450;-77
2023/06/03 12:29:56;;;;;;;6.30;3.43;;;26.40;89.10;;;;;;5096507;28;20455;-83
2023/06/03 12:32:25;;;;;;;3.97;3.40;;;26.40;90.60;;;;;;5094796;28;20769;-84
2023/06/03 12:34:51;;;;;;;6.07;4.33;;;26.40;90.70;;;;;;5096245;28;20503;-77
2023/06/03 12:37:30;;;;;;;7.83;3.93;;;26.40;88.20;;;;;;5094704;28;20413;-83
2023/06/03 12:39:57;;;;;;;5.00;4.20;;;26.40;90.30;;;;;;5095742;28;20433;-77
2023/06/03 12:42:42;;;;;;;9.10;3.90;;;26.30;90.70;;;;;;5094619;28;20409;-77
2023/06/03 12:45:08;;;;;;;6.50;4.13;;;26.30;91.10;;;;;;5094363;28;20448;-77
2023/06/03 12:47:47;;;;;;;6.40;3.73;;;26.30;90.90;;;;;;5094422;28;20491;-83
2023/06/03 12:50:14;;;;;;;8.93;4.00;;;26.30;88.50;;;;;;5095666;28;20490;-84
2023/06/03 12:52:40;;;;;;;4.87;3.73;;;26.20;87.60;;;;;;5095506;28;20409;-77
2023/06/03 12:55:11;;;;;;;4.47;3.70;;;26.20;89.40;;;;;;5094076;28;20468;-77